createdAt,value
2019-03-21T00:00:19.899Z,3.45
2019-03-21T00:01:26.871Z,3.92
2019-03-21T00:02:31.637Z,3.95
2019-03-21T00:03:36.331Z,4.50
2019-03-21T00:04:41.915Z,3.55
2019-03-21T00:05:46.601Z,4.47
2019-03-21T00:06:51.392Z,3.90
2019-03-21T00:07:56.226Z,3.95
2019-03-21T00:09:01.032Z,4.15
2019-03-21T00:10:55.682Z,3.85
2019-03-21T00:12:07.694Z,3.65
2019-03-21T00:13:12.753Z,4.67
2019-03-21T00:14:50.527Z,4.10
2019-03-21T00:15:58.379Z,4.20
2019-03-21T00:17:04.023Z,4.47
2019-03-21T00:18:11.181Z,3.83
2019-03-21T00:19:15.908Z,3.85
2019-03-21T00:20:20.734Z,4.30
2019-03-21T00:21:25.569Z,4.15
2019-03-21T00:22:30.696Z,4.20
2019-03-21T00:23:35.495Z,4.50
2019-03-21T00:24:40.162Z,3.45
2019-03-21T00:25:44.904Z,4.58
2019-03-21T00:26:49.617Z,3.00
2019-03-21T00:27:54.561Z,2.90
2019-03-21T00:28:59.367Z,3.55
2019-03-21T00:30:04.725Z,3.62
2019-03-21T00:31:09.580Z,4.03
2019-03-21T00:32:14.246Z,3.37
2019-03-21T00:33:18.955Z,3.58
2019-03-21T00:34:23.771Z,3.20
2019-03-21T00:35:28.444Z,3.33
2019-03-21T00:36:33.235Z,3.52
2019-03-21T00:37:38.065Z,3.50
2019-03-21T00:38:43.181Z,3.15
2019-03-21T00:39:48.047Z,3.50
2019-03-21T00:40:52.910Z,3.87
2019-03-21T00:41:57.800Z,3.22
2019-03-21T00:43:04.477Z,2.92
2019-03-21T00:44:17.879Z,3.17
2019-03-21T00:45:17.818Z,3.12
2019-03-21T00:46:22.683Z,3.45
2019-03-21T00:47:27.503Z,3.08
2019-03-21T00:48:32.447Z,3.05
2019-03-21T00:49:37.253Z,3.80
2019-03-21T00:50:42.672Z,3.60
2019-03-21T00:51:47.370Z,3.05
2019-03-21T00:52:53.315Z,3.50
2019-03-21T00:53:58.092Z,3.15
2019-03-21T00:55:02.954Z,3.67
2019-03-21T00:56:07.917Z,3.40
2019-03-21T00:57:12.666Z,3.40
2019-03-21T00:58:17.577Z,3.75
2019-03-21T00:59:22.430Z,3.52
2019-03-21T01:00:30.533Z,3.60
2019-03-21T01:01:35.351Z,4.25
2019-03-21T01:02:40.199Z,4.22
2019-03-21T01:03:45.043Z,3.90
2019-03-21T01:04:49.847Z,3.50
2019-03-21T01:05:54.525Z,3.40
2019-03-21T01:06:59.200Z,4.05
2019-03-21T01:08:03.875Z,3.83
2019-03-21T01:09:10.257Z,3.62
2019-03-21T01:10:16.163Z,4.37
2019-03-21T01:11:21.440Z,3.95
2019-03-21T01:12:26.176Z,3.80
2019-03-21T01:13:33.206Z,3.90
2019-03-21T01:14:38.099Z,4.33
2019-03-21T01:15:42.890Z,4.28
2019-03-21T01:16:47.662Z,4.45
2019-03-21T01:17:52.601Z,3.85
2019-03-21T01:18:57.505Z,4.00
2019-03-21T01:20:02.398Z,3.10
2019-03-21T01:21:07.267Z,4.00
2019-03-21T01:22:12.169Z,4.00
2019-03-21T01:23:16.903Z,4.08
2019-03-21T01:24:21.945Z,3.40
2019-03-21T01:25:30.510Z,3.70
2019-03-21T01:26:35.693Z,3.00
2019-03-21T01:27:40.357Z,4.20
2019-03-21T01:28:45.045Z,4.50
2019-03-21T01:29:49.909Z,3.20
2019-03-21T01:30:54.747Z,3.70
2019-03-21T01:31:59.577Z,3.40
2019-03-21T01:33:04.363Z,3.17
2019-03-21T01:34:10.019Z,3.10
2019-03-21T01:35:14.949Z,3.20
2019-03-21T01:36:21.290Z,2.77
2019-03-21T01:37:25.998Z,2.80
2019-03-21T01:38:30.834Z,2.90
2019-03-21T01:39:35.680Z,3.10
2019-03-21T01:40:41.730Z,3.10
2019-03-21T01:41:46.606Z,2.92
2019-03-21T01:42:51.309Z,3.12
2019-03-21T01:43:56.052Z,4.42
2019-03-21T01:45:00.743Z,2.77
2019-03-21T01:46:08.517Z,3.05
2019-03-21T01:47:13.353Z,3.58
2019-03-21T01:48:18.169Z,3.42
2019-03-21T01:49:22.963Z,3.20
2019-03-21T01:50:27.917Z,2.62
2019-03-21T01:51:32.788Z,3.20
2019-03-21T01:52:37.715Z,3.20
2019-03-21T01:53:42.493Z,3.05
2019-03-21T01:54:47.344Z,3.52
2019-03-21T01:55:52.181Z,3.02
2019-03-21T01:56:57.063Z,3.08
2019-03-21T01:58:01.931Z,3.10
2019-03-21T01:59:06.817Z,3.80
2019-03-21T02:00:15.211Z,3.62
2019-03-21T02:01:20.044Z,4.40
2019-03-21T02:02:24.929Z,4.15
2019-03-21T02:03:29.763Z,4.00
2019-03-21T02:04:34.490Z,3.87
2019-03-21T02:05:39.368Z,3.77
2019-03-21T02:06:44.172Z,3.47
2019-03-21T02:07:48.993Z,3.35
2019-03-21T02:08:53.960Z,3.80
2019-03-21T02:09:58.777Z,4.30
2019-03-21T02:11:03.615Z,3.70
2019-03-21T02:12:08.349Z,3.80
2019-03-21T02:13:13.252Z,4.20
2019-03-21T02:14:18.071Z,4.62
2019-03-21T02:15:24.998Z,4.58
2019-03-21T02:16:29.435Z,4.70
2019-03-21T02:17:43.391Z,4.28
2019-03-21T02:18:48.170Z,3.75
2019-03-21T02:19:53.061Z,4.15
2019-03-21T02:20:57.905Z,3.80
2019-03-21T02:22:02.852Z,3.98
2019-03-21T02:23:07.647Z,3.67
2019-03-21T02:24:12.605Z,4.60
2019-03-21T02:25:22.432Z,4.50
2019-03-21T02:26:27.145Z,3.92
2019-03-21T02:27:31.930Z,4.30
2019-03-21T02:28:36.680Z,4.50
2019-03-21T02:29:41.529Z,3.60
2019-03-21T02:30:46.417Z,3.98
2019-03-21T02:31:51.158Z,4.20
2019-03-21T02:32:59.431Z,4.15
2019-03-21T02:34:04.111Z,3.60
2019-03-21T02:35:09.126Z,3.58
2019-03-21T02:36:14.048Z,3.75
2019-03-21T02:37:18.927Z,4.17
2019-03-21T02:38:23.692Z,4.30
2019-03-21T02:39:28.557Z,5.00
2019-03-21T02:40:33.384Z,4.05
2019-03-21T02:41:38.233Z,4.15
2019-03-21T02:42:43.000Z,4.30
2019-03-21T02:43:47.809Z,4.10
2019-03-21T02:45:07.276Z,3.87
2019-03-21T02:45:59.588Z,3.35
2019-03-21T02:47:04.499Z,3.90
2019-03-21T02:48:09.390Z,3.67
2019-03-21T02:49:14.231Z,3.87
2019-03-21T02:50:22.380Z,3.62
2019-03-21T02:51:27.268Z,3.72
2019-03-21T02:52:31.956Z,3.92
2019-03-21T02:53:36.732Z,3.98
2019-03-21T02:54:41.624Z,4.05
2019-03-21T02:55:46.587Z,3.92
2019-03-21T02:56:51.904Z,3.98
2019-03-21T02:57:56.832Z,4.22
2019-03-21T02:59:01.756Z,3.30
2019-03-21T03:00:09.022Z,4.20
2019-03-21T03:01:13.801Z,3.72
2019-03-21T03:02:18.585Z,4.17
2019-03-21T03:03:23.550Z,4.22
2019-03-21T03:04:28.433Z,4.15
2019-03-21T03:05:33.329Z,4.33
2019-03-21T03:06:38.149Z,4.08
2019-03-21T03:07:43.048Z,4.20
2019-03-21T03:08:48.233Z,3.80
2019-03-21T03:09:53.098Z,4.08
2019-03-21T03:10:57.959Z,4.60
2019-03-21T03:12:03.051Z,4.03
2019-03-21T03:13:07.883Z,4.17
2019-03-21T03:14:12.743Z,3.70
2019-03-21T03:15:23.166Z,4.15
2019-03-21T03:16:25.241Z,4.15
2019-03-21T03:17:30.038Z,3.75
2019-03-21T03:18:35.008Z,3.80
2019-03-21T03:19:39.872Z,3.70
2019-03-21T03:20:44.706Z,3.60
2019-03-21T03:21:49.604Z,3.92
2019-03-21T03:22:54.491Z,3.77
2019-03-21T03:23:59.325Z,4.25
2019-03-21T03:25:04.371Z,3.85
2019-03-21T03:26:09.123Z,3.87
2019-03-21T03:27:13.957Z,3.12
2019-03-21T03:28:21.274Z,4.08
2019-03-21T03:29:26.240Z,3.47
2019-03-21T03:30:31.061Z,3.52
2019-03-21T03:31:35.825Z,3.30
2019-03-21T03:32:40.696Z,3.85
2019-03-21T03:33:45.641Z,3.80
2019-03-21T03:34:50.512Z,2.90
2019-03-21T03:35:55.239Z,3.40
2019-03-21T03:37:00.137Z,3.85
2019-03-21T03:38:05.016Z,3.77
2019-03-21T03:39:10.084Z,3.60
2019-03-21T03:40:17.568Z,3.37
2019-03-21T03:41:22.598Z,4.10
2019-03-21T03:42:27.470Z,3.77
2019-03-21T03:43:32.154Z,3.15
2019-03-21T03:44:36.964Z,3.90
2019-03-21T03:45:42.154Z,3.05
2019-03-21T03:46:46.893Z,3.42
2019-03-21T03:47:51.837Z,3.85
2019-03-21T03:48:56.664Z,3.35
2019-03-21T03:50:01.587Z,3.47
2019-03-21T03:51:06.380Z,4.00
2019-03-21T03:52:11.196Z,3.00
2019-03-21T03:53:15.844Z,3.33
2019-03-21T03:54:20.560Z,3.47
2019-03-21T03:55:25.405Z,2.70
2019-03-21T03:56:30.280Z,3.15
2019-03-21T03:57:35.279Z,3.30
2019-03-21T03:58:41.646Z,3.30
2019-03-21T03:59:46.398Z,3.65
2019-03-21T04:00:51.285Z,3.45
2019-03-21T04:01:56.341Z,3.87
2019-03-21T04:03:01.092Z,3.55
2019-03-21T04:04:05.985Z,3.22
2019-03-21T04:05:10.955Z,3.20
2019-03-21T04:06:15.693Z,3.60
2019-03-21T04:07:20.459Z,3.45
2019-03-21T04:08:25.376Z,3.47
2019-03-21T04:09:30.121Z,2.98
2019-03-21T04:10:36.742Z,5.08
2019-03-21T04:11:41.500Z,3.30
2019-03-21T04:12:46.677Z,3.58
2019-03-21T04:13:51.554Z,3.65
2019-03-21T04:14:56.310Z,3.58
2019-03-21T04:16:01.416Z,3.30
2019-03-21T04:17:06.113Z,3.35
2019-03-21T04:18:10.985Z,3.10
2019-03-21T04:19:15.846Z,3.40
2019-03-21T04:20:22.154Z,3.35
2019-03-21T04:21:26.938Z,3.50
2019-03-21T04:22:31.726Z,3.50
2019-03-21T04:23:36.537Z,3.08
2019-03-21T04:24:41.397Z,3.80
2019-03-21T04:25:55.379Z,3.83
2019-03-21T04:27:00.292Z,3.58
2019-03-21T04:28:05.177Z,2.87
2019-03-21T04:29:09.990Z,4.20
2019-03-21T04:30:15.686Z,3.15
2019-03-21T04:31:20.558Z,3.27
2019-03-21T04:32:25.567Z,3.25
2019-03-21T04:33:30.340Z,3.62
2019-03-21T04:34:35.107Z,3.55
2019-03-21T04:35:39.978Z,3.70
2019-03-21T04:36:44.857Z,3.42
2019-03-21T04:37:49.748Z,3.80
2019-03-21T04:38:54.501Z,3.90
2019-03-21T04:39:59.448Z,3.58
2019-03-21T04:41:04.469Z,4.45
2019-03-21T04:42:09.307Z,5.80
2019-03-21T04:43:13.987Z,7.50
2019-03-21T04:44:18.709Z,8.20
2019-03-21T04:45:23.531Z,9.00
2019-03-21T04:46:28.455Z,9.05
2019-03-21T04:47:33.154Z,7.92
2019-03-21T04:48:38.447Z,6.62
2019-03-21T04:49:43.231Z,6.40
2019-03-21T04:50:47.976Z,5.37
2019-03-21T04:51:52.874Z,4.33
2019-03-21T04:52:57.550Z,4.30
2019-03-21T04:54:02.385Z,4.10
2019-03-21T04:55:08.361Z,5.03
2019-03-21T04:56:13.454Z,4.65
2019-03-21T04:57:18.375Z,4.30
2019-03-21T04:58:23.251Z,3.92
2019-03-21T04:59:28.101Z,4.00
2019-03-21T05:00:33.808Z,3.83
2019-03-21T05:01:38.509Z,4.62
2019-03-21T05:02:43.394Z,4.65
2019-03-21T05:03:48.264Z,4.62
2019-03-21T05:04:53.058Z,4.25
2019-03-21T05:05:57.910Z,3.92
2019-03-21T05:07:02.690Z,4.25
2019-03-21T05:08:07.525Z,3.77
2019-03-21T05:09:16.113Z,3.55
2019-03-21T05:10:20.876Z,3.72
2019-03-21T05:11:25.564Z,3.35
2019-03-21T05:12:30.402Z,4.37
2019-03-21T05:13:35.224Z,4.42
2019-03-21T05:14:40.117Z,3.98
2019-03-21T05:15:44.881Z,3.37
2019-03-21T05:16:49.805Z,4.20
2019-03-21T05:17:56.094Z,3.17
2019-03-21T05:19:01.097Z,4.22
2019-03-21T05:20:06.784Z,3.62
2019-03-21T05:21:12.744Z,3.62
2019-03-21T05:22:17.579Z,4.78
2019-03-21T05:23:22.451Z,3.72
2019-03-21T05:24:27.328Z,3.50
2019-03-21T05:25:32.225Z,4.37
2019-03-21T05:26:37.045Z,3.52
2019-03-21T05:27:41.807Z,3.40
2019-03-21T05:28:46.603Z,4.65
2019-03-21T05:29:51.671Z,3.20
2019-03-21T05:30:59.678Z,3.65
2019-03-21T05:32:04.651Z,3.50
2019-03-21T05:33:09.563Z,3.50
2019-03-21T05:34:14.470Z,3.95
2019-03-21T05:35:19.145Z,3.77
2019-03-21T05:36:24.026Z,4.65
2019-03-21T05:37:28.749Z,3.55
2019-03-21T05:38:33.705Z,3.92
2019-03-21T05:39:38.569Z,3.52
2019-03-21T05:40:43.490Z,4.22
2019-03-21T05:41:48.285Z,3.33
2019-03-21T05:43:02.701Z,3.75
2019-03-21T05:44:16.696Z,3.70
2019-03-21T05:45:21.468Z,3.17
2019-03-21T05:46:27.237Z,3.90
2019-03-21T05:47:32.286Z,3.35
2019-03-21T05:48:37.116Z,3.47
2019-03-21T05:49:42.005Z,3.75
2019-03-21T05:50:46.935Z,3.27
2019-03-21T05:51:51.741Z,3.52
2019-03-21T05:52:56.815Z,3.27
2019-03-21T05:54:01.671Z,3.55
2019-03-21T05:55:07.043Z,3.33
2019-03-21T05:56:12.192Z,3.50
2019-03-21T05:57:17.012Z,3.45
2019-03-21T05:58:21.775Z,4.25
2019-03-21T05:59:26.611Z,3.98
2019-03-21T06:00:35.765Z,4.15
2019-03-21T06:01:40.548Z,3.60
2019-03-21T06:02:45.468Z,4.22
2019-03-21T06:03:51.258Z,3.80
2019-03-21T06:04:56.162Z,3.27
2019-03-21T06:06:05.982Z,3.67
2019-03-21T06:07:45.084Z,3.60
2019-03-21T06:08:49.991Z,4.47
2019-03-21T06:09:54.863Z,3.40
2019-03-21T06:10:59.660Z,3.33
2019-03-21T06:12:04.391Z,3.35
2019-03-21T06:13:09.292Z,4.15
2019-03-21T06:14:14.508Z,3.25
2019-03-21T06:15:22.707Z,4.00
2019-03-21T06:16:37.221Z,3.72
2019-03-21T06:17:34.261Z,4.00
2019-03-21T06:18:47.396Z,3.55
2019-03-21T06:20:23.189Z,3.30
2019-03-21T06:21:52.100Z,4.30
2019-03-21T06:23:28.925Z,4.25
2019-03-21T06:25:01.767Z,4.12
2019-03-21T06:26:18.344Z,3.10
2019-03-21T06:27:28.078Z,3.75
2019-03-21T06:28:32.973Z,3.77
2019-03-21T06:29:37.799Z,3.27
2019-03-21T06:30:42.511Z,3.52
2019-03-21T06:31:47.263Z,3.77
2019-03-21T06:32:52.148Z,3.35
2019-03-21T06:33:56.924Z,3.80
2019-03-21T06:35:01.610Z,4.22
2019-03-21T06:36:06.499Z,3.92
2019-03-21T06:37:11.330Z,3.45
2019-03-21T06:38:16.136Z,3.90
2019-03-21T06:39:21.008Z,3.60
2019-03-21T06:40:25.715Z,3.60
2019-03-21T06:41:30.539Z,3.67
2019-03-21T06:42:35.495Z,3.65
2019-03-21T06:43:40.362Z,3.77
2019-03-21T06:44:45.264Z,3.50
2019-03-21T06:45:50.147Z,4.42
2019-03-21T06:46:55.009Z,3.45
2019-03-21T06:47:59.823Z,3.35
2019-03-21T06:49:04.510Z,3.60
2019-03-21T06:50:09.337Z,3.65
2019-03-21T06:51:14.306Z,4.17
2019-03-21T06:52:19.191Z,3.65
2019-03-21T06:53:24.039Z,4.12
2019-03-21T06:54:28.749Z,4.10
2019-03-21T06:55:33.687Z,3.90
2019-03-21T06:56:38.445Z,3.80
2019-03-21T06:57:43.187Z,3.45
2019-03-21T06:58:47.920Z,3.65
2019-03-21T06:59:52.725Z,3.85
2019-03-21T07:00:57.612Z,4.15
2019-03-21T07:02:02.356Z,3.55
2019-03-21T07:03:07.133Z,3.77
2019-03-21T07:04:11.999Z,4.00
2019-03-21T07:05:16.773Z,3.60
2019-03-21T07:06:21.624Z,4.33
2019-03-21T07:07:26.518Z,3.52
2019-03-21T07:08:31.401Z,3.70
2019-03-21T07:09:36.239Z,3.60
2019-03-21T07:10:41.147Z,3.80
2019-03-21T07:11:45.897Z,3.83
2019-03-21T07:12:50.790Z,3.80
2019-03-21T07:13:55.503Z,3.65
2019-03-21T07:15:00.374Z,3.80
2019-03-21T07:16:05.405Z,3.47
2019-03-21T07:17:10.291Z,3.90
2019-03-21T07:18:15.241Z,4.25
2019-03-21T07:19:19.963Z,3.37
2019-03-21T07:20:24.839Z,3.85
2019-03-21T07:21:29.711Z,3.80
2019-03-21T07:22:34.509Z,3.80
2019-03-21T07:23:39.341Z,3.45
2019-03-21T07:24:44.055Z,3.75
2019-03-21T07:25:48.905Z,3.62
2019-03-21T07:26:53.638Z,3.50
2019-03-21T07:27:58.484Z,3.65
2019-03-21T07:29:03.691Z,3.70
2019-03-21T07:30:10.066Z,4.60
2019-03-21T07:31:14.973Z,4.12
2019-03-21T07:32:19.729Z,3.80
2019-03-21T07:33:24.624Z,3.52
2019-03-21T07:34:29.559Z,4.03
2019-03-21T07:35:34.337Z,4.08
2019-03-21T07:36:39.100Z,3.80
2019-03-21T07:37:43.887Z,4.08
2019-03-21T07:38:48.720Z,3.42
2019-03-21T07:39:53.587Z,4.00
2019-03-21T07:40:58.411Z,3.83
2019-03-21T07:42:03.232Z,3.75
2019-03-21T07:43:08.055Z,4.25
2019-03-21T07:44:12.897Z,3.90
2019-03-21T07:45:17.768Z,3.60
2019-03-21T07:46:22.720Z,3.65
2019-03-21T07:47:27.545Z,4.12
2019-03-21T07:48:32.320Z,4.05
2019-03-21T07:49:37.085Z,5.10
2019-03-21T07:50:41.931Z,3.80
2019-03-21T07:51:46.672Z,4.37
2019-03-21T07:52:51.389Z,4.97
2019-03-21T07:53:56.101Z,4.05
2019-03-21T07:55:01.008Z,4.30
2019-03-21T07:56:05.869Z,3.95
2019-03-21T07:57:10.733Z,4.53
2019-03-21T07:58:15.555Z,4.15
2019-03-21T07:59:20.422Z,3.70
2019-03-21T08:00:25.199Z,3.70
2019-03-21T08:01:29.956Z,4.22
2019-03-21T08:02:34.822Z,3.85
2019-03-21T08:03:39.700Z,3.95
2019-03-21T08:04:44.493Z,3.77
2019-03-21T08:05:49.373Z,3.87
2019-03-21T08:06:54.185Z,4.25
2019-03-21T08:07:59.053Z,4.40
2019-03-21T08:09:06.134Z,4.12
2019-03-21T08:10:11.225Z,3.75
2019-03-21T08:11:16.099Z,4.40
2019-03-21T08:12:20.849Z,3.50
2019-03-21T08:13:25.567Z,3.52
2019-03-21T08:14:30.433Z,4.62
2019-03-21T08:15:37.758Z,3.90
2019-03-21T08:16:41.787Z,4.42
2019-03-21T08:18:05.294Z,4.70
2019-03-21T08:19:10.175Z,4.67
2019-03-21T08:20:15.253Z,4.37
2019-03-21T08:21:19.952Z,5.10
2019-03-21T08:22:24.846Z,4.65
2019-03-21T08:23:29.621Z,4.83
2019-03-21T08:24:34.363Z,4.42
2019-03-21T08:25:39.242Z,4.25
2019-03-21T08:26:44.018Z,5.60
2019-03-21T08:27:51.639Z,5.22
2019-03-21T08:28:55.555Z,4.72
2019-03-21T08:30:00.320Z,5.10
2019-03-21T08:31:15.580Z,3.90
2019-03-21T08:32:20.515Z,5.05
2019-03-21T08:33:25.265Z,4.12
2019-03-21T08:34:30.007Z,3.90
2019-03-21T08:35:34.868Z,4.47
2019-03-21T08:36:39.745Z,5.22
2019-03-21T08:37:44.607Z,3.98
2019-03-21T08:38:49.330Z,4.58
2019-03-21T08:39:54.166Z,4.40
2019-03-21T08:40:59.066Z,3.55
2019-03-21T08:42:03.950Z,4.33
2019-03-21T08:43:09.035Z,4.90
2019-03-21T08:44:13.872Z,4.17
2019-03-21T08:45:18.721Z,4.22
2019-03-21T08:46:23.633Z,4.25
2019-03-21T08:47:28.472Z,4.10
2019-03-21T08:48:33.343Z,4.12
2019-03-21T08:49:38.211Z,3.92
2019-03-21T08:50:43.095Z,3.90
2019-03-21T08:51:47.985Z,4.22
2019-03-21T08:52:52.810Z,4.95
2019-03-21T08:53:57.688Z,3.92
2019-03-21T08:55:02.444Z,4.40
2019-03-21T08:56:07.191Z,4.45
2019-03-21T08:57:11.880Z,4.85
2019-03-21T08:58:16.719Z,4.33
2019-03-21T08:59:23.227Z,4.20
2019-03-21T09:00:34.087Z,5.22
2019-03-21T09:01:34.761Z,4.50
2019-03-21T09:02:39.570Z,4.78
2019-03-21T09:03:44.409Z,4.42
2019-03-21T09:04:49.290Z,5.20
2019-03-21T09:05:54.055Z,4.65
2019-03-21T09:06:58.865Z,4.87
2019-03-21T09:08:03.568Z,5.30
2019-03-21T09:09:09.964Z,5.30
2019-03-21T09:10:14.716Z,4.78
2019-03-21T09:11:19.541Z,5.33
2019-03-21T09:12:24.293Z,5.00
2019-03-21T09:13:29.187Z,5.55
2019-03-21T09:14:33.988Z,4.55
2019-03-21T09:15:38.875Z,5.55
2019-03-21T09:16:43.634Z,5.08
2019-03-21T09:17:48.609Z,4.97
2019-03-21T09:18:53.429Z,5.12
2019-03-21T09:19:58.171Z,5.30
2019-03-21T09:21:02.973Z,4.87
2019-03-21T09:22:07.718Z,4.10
2019-03-21T09:23:12.576Z,4.80
2019-03-21T09:24:17.323Z,4.85
2019-03-21T09:25:22.141Z,5.33
2019-03-21T09:26:27.055Z,4.80
2019-03-21T09:27:31.928Z,4.97
2019-03-21T09:28:36.814Z,4.55
2019-03-21T09:29:52.837Z,4.30
2019-03-21T09:30:50.540Z,4.28
2019-03-21T09:31:55.019Z,4.92
2019-03-21T09:32:59.806Z,4.60
2019-03-21T09:34:04.598Z,4.90
2019-03-21T09:35:12.259Z,5.05
2019-03-21T09:36:16.229Z,4.80
2019-03-21T09:37:20.984Z,4.72
2019-03-21T09:38:25.904Z,5.05
2019-03-21T09:39:30.725Z,4.72
2019-03-21T09:40:35.491Z,4.90
2019-03-21T09:41:40.253Z,5.03
2019-03-21T09:42:45.103Z,4.60
2019-03-21T09:43:49.913Z,4.78
2019-03-21T09:44:54.595Z,4.62
2019-03-21T09:45:59.453Z,5.10
2019-03-21T09:47:04.315Z,7.00
2019-03-21T09:48:09.081Z,4.62
2019-03-21T09:49:13.966Z,4.30
2019-03-21T09:50:27.037Z,5.55
2019-03-21T09:51:31.796Z,5.25
2019-03-21T09:52:36.554Z,5.00
2019-03-21T09:53:41.392Z,5.33
2019-03-21T09:54:46.163Z,4.50
2019-03-21T09:55:50.891Z,5.20
2019-03-21T09:56:56.003Z,4.87
2019-03-21T09:58:00.723Z,6.10
2019-03-21T09:59:05.581Z,5.22
2019-03-21T10:00:10.749Z,6.35
2019-03-21T10:01:15.477Z,5.50
2019-03-21T10:02:20.333Z,5.12
2019-03-21T10:03:25.119Z,5.53
2019-03-21T10:04:30.021Z,4.92
2019-03-21T10:05:34.741Z,5.15
2019-03-21T10:06:39.652Z,4.67
2019-03-21T10:07:44.519Z,4.30
2019-03-21T10:08:49.201Z,4.50
2019-03-21T10:09:54.083Z,4.20
2019-03-21T10:10:58.979Z,4.85
2019-03-21T10:12:03.939Z,4.47
2019-03-21T10:13:08.669Z,4.85
2019-03-21T10:14:13.347Z,4.40
2019-03-21T10:15:18.064Z,4.95
2019-03-21T10:16:22.951Z,4.90
2019-03-21T10:17:28.071Z,5.35
2019-03-21T10:18:32.903Z,4.35
2019-03-21T10:19:37.627Z,4.70
2019-03-21T10:20:42.485Z,5.10
2019-03-21T10:21:47.273Z,4.30
2019-03-21T10:22:52.047Z,4.40
2019-03-21T10:23:56.768Z,4.37
2019-03-21T10:25:01.499Z,4.42
2019-03-21T10:26:06.462Z,3.55
2019-03-21T10:27:11.375Z,4.10
2019-03-21T10:28:16.241Z,4.70
2019-03-21T10:29:20.955Z,4.40
2019-03-21T10:30:32.392Z,5.10
2019-03-21T10:31:37.108Z,4.10
2019-03-21T10:32:41.921Z,4.55
2019-03-21T10:33:46.683Z,3.98
2019-03-21T10:34:51.577Z,3.90
2019-03-21T10:35:56.423Z,4.60
2019-03-21T10:37:01.369Z,4.50
2019-03-21T10:38:07.528Z,4.83
2019-03-21T10:39:12.420Z,3.83
2019-03-21T10:40:17.227Z,4.42
2019-03-21T10:41:22.057Z,4.58
2019-03-21T10:42:26.773Z,4.90
2019-03-21T10:43:31.753Z,4.92
2019-03-21T10:44:36.602Z,5.03
2019-03-21T10:45:41.469Z,4.70
2019-03-21T10:46:46.271Z,4.35
2019-03-21T10:47:51.151Z,4.72
2019-03-21T10:48:56.003Z,4.45
2019-03-21T10:50:00.843Z,4.42
2019-03-21T10:51:05.741Z,5.17
2019-03-21T10:52:10.432Z,4.40
2019-03-21T10:53:15.306Z,4.92
2019-03-21T10:54:20.081Z,4.37
2019-03-21T10:55:24.775Z,4.10
2019-03-21T10:56:29.575Z,4.75
2019-03-21T10:57:34.274Z,3.80
2019-03-21T10:58:39.016Z,4.58
2019-03-21T10:59:43.907Z,4.00
2019-03-21T11:00:48.900Z,3.65
2019-03-21T11:01:53.783Z,3.87
2019-03-21T11:02:58.682Z,3.77
2019-03-21T11:04:03.810Z,3.20
2019-03-21T11:05:08.705Z,3.58
2019-03-21T11:06:13.584Z,3.72
2019-03-21T11:07:16.253Z,3.20
2019-03-21T11:08:21.132Z,4.30
2019-03-21T11:09:25.857Z,3.70
2019-03-21T11:10:30.680Z,3.67
2019-03-21T11:11:35.455Z,3.20
2019-03-21T11:12:40.228Z,4.53
2019-03-21T11:13:45.114Z,4.05
2019-03-21T11:14:49.994Z,3.87
2019-03-21T11:15:54.953Z,4.05
2019-03-21T11:16:59.756Z,5.03
2019-03-21T11:18:05.032Z,4.17
2019-03-21T11:19:09.831Z,5.10
2019-03-21T11:20:26.191Z,4.10
2019-03-21T11:21:31.058Z,4.00
2019-03-21T11:22:35.797Z,4.70
2019-03-21T11:23:40.651Z,4.42
2019-03-21T11:24:45.396Z,4.33
2019-03-21T11:25:50.110Z,4.85
2019-03-21T11:26:55.084Z,4.30
2019-03-21T11:27:59.870Z,4.45
2019-03-21T11:29:04.589Z,4.30
2019-03-21T11:30:16.119Z,4.30
2019-03-21T11:31:16.287Z,4.00
2019-03-21T11:32:21.564Z,4.58
2019-03-21T11:33:26.417Z,4.47
2019-03-21T11:34:31.314Z,4.42
2019-03-21T11:35:36.438Z,4.67
2019-03-21T11:36:41.453Z,4.47
2019-03-21T11:37:46.419Z,4.35
2019-03-21T11:38:51.297Z,4.00
2019-03-21T11:39:56.167Z,3.98
2019-03-21T11:41:01.047Z,4.17
2019-03-21T11:42:06.023Z,4.47
2019-03-21T11:43:20.692Z,4.00
2019-03-21T11:44:25.614Z,4.40
2019-03-21T11:45:30.532Z,4.10
2019-03-21T11:46:35.377Z,4.65
2019-03-21T11:47:42.070Z,3.52
2019-03-21T11:48:46.835Z,3.55
2019-03-21T11:49:51.586Z,5.17
2019-03-21T11:50:56.405Z,5.30
2019-03-21T11:52:01.279Z,4.55
2019-03-21T11:53:06.409Z,5.20
2019-03-21T11:54:11.201Z,5.10
2019-03-21T11:55:15.963Z,4.80
2019-03-21T11:56:20.729Z,4.67
2019-03-21T11:57:25.683Z,3.47
2019-03-21T11:58:30.484Z,5.05
2019-03-21T11:59:50.484Z,3.83
2019-03-21T12:00:45.308Z,4.20
2019-03-21T12:01:49.254Z,3.90
2019-03-21T12:02:54.056Z,4.72
2019-03-21T12:03:58.929Z,3.85
2019-03-21T12:05:03.803Z,4.78
2019-03-21T12:06:08.697Z,4.62
2019-03-21T12:07:13.473Z,4.12
2019-03-21T12:08:18.280Z,4.28
2019-03-21T12:09:23.061Z,4.15
2019-03-21T12:10:27.794Z,4.25
2019-03-21T12:11:32.563Z,3.65
2019-03-21T12:12:37.449Z,4.20
2019-03-21T12:13:42.159Z,3.90
2019-03-21T12:14:46.974Z,3.75
2019-03-21T12:15:51.843Z,4.10
2019-03-21T12:16:56.719Z,4.62
2019-03-21T12:18:01.531Z,4.05
2019-03-21T12:19:06.329Z,3.90
2019-03-21T12:20:11.171Z,3.75
2019-03-21T12:21:15.963Z,3.90
2019-03-21T12:22:29.556Z,4.75
2019-03-21T12:23:27.113Z,4.40
2019-03-21T12:24:31.995Z,4.25
2019-03-21T12:25:36.847Z,4.70
2019-03-21T12:26:41.665Z,5.62
2019-03-21T12:27:46.547Z,5.00
2019-03-21T12:28:51.230Z,4.65
2019-03-21T12:29:56.268Z,4.58
2019-03-21T12:31:01.145Z,4.17
2019-03-21T12:32:05.984Z,4.20
2019-03-21T12:33:10.985Z,4.22
2019-03-21T12:34:15.765Z,5.17
2019-03-21T12:35:20.800Z,4.15
2019-03-21T12:36:25.612Z,5.25
2019-03-21T12:37:30.396Z,4.33
2019-03-21T12:38:35.260Z,4.85
2019-03-21T12:39:40.054Z,5.70
2019-03-21T12:40:44.913Z,5.17
2019-03-21T12:41:49.780Z,5.50
2019-03-21T12:42:54.647Z,5.08
2019-03-21T12:43:59.537Z,4.55
2019-03-21T12:45:05.371Z,4.47
2019-03-21T12:46:10.231Z,4.75
2019-03-21T12:47:15.119Z,4.87
2019-03-21T12:48:20.007Z,4.20
2019-03-21T12:49:24.720Z,3.87
2019-03-21T12:50:29.440Z,4.00
2019-03-21T12:51:34.192Z,4.15
2019-03-21T12:53:45.421Z,3.60
2019-03-21T12:54:50.234Z,4.17
2019-03-21T12:55:55.091Z,4.12
2019-03-21T12:56:45.617Z,3.65
2019-03-21T12:56:59.908Z,3.00
2019-03-21T12:58:04.802Z,3.80
2019-03-21T12:59:09.542Z,4.00
2019-03-21T13:00:14.529Z,3.15
2019-03-21T13:01:19.381Z,4.20
2019-03-21T13:02:31.972Z,4.30
2019-03-21T13:03:30.850Z,3.75
2019-03-21T13:04:35.576Z,3.10
2019-03-21T13:05:40.418Z,3.67
2019-03-21T13:06:45.307Z,3.95
2019-03-21T13:07:50.187Z,3.77
2019-03-21T13:08:55.098Z,3.85
2019-03-21T13:09:59.941Z,3.20
2019-03-21T13:11:04.934Z,4.30
2019-03-21T13:12:09.799Z,3.75
2019-03-21T13:13:14.600Z,4.97
2019-03-21T13:14:19.475Z,3.55
2019-03-21T13:15:29.765Z,3.60
2019-03-21T13:16:30.841Z,3.70
2019-03-21T13:17:35.655Z,4.03
2019-03-21T13:18:40.536Z,3.50
2019-03-21T13:19:45.428Z,3.62
2019-03-21T13:20:50.143Z,4.25
2019-03-21T13:21:54.854Z,3.83
2019-03-21T13:22:59.702Z,3.50
2019-03-21T13:24:04.481Z,3.33
2019-03-21T13:25:09.475Z,3.65
2019-03-21T13:26:14.297Z,3.47
2019-03-21T13:27:19.193Z,3.00
2019-03-21T13:28:23.911Z,3.50
2019-03-21T13:29:28.826Z,3.83
2019-03-21T13:30:34.001Z,4.17
2019-03-21T13:31:38.878Z,3.65
2019-03-21T13:32:43.755Z,3.72
2019-03-21T13:33:48.466Z,4.58
2019-03-21T13:34:53.340Z,4.25
2019-03-21T13:35:58.231Z,3.87
2019-03-21T13:37:03.067Z,3.65
2019-03-21T13:38:07.834Z,3.90
2019-03-21T13:39:12.873Z,3.80
2019-03-21T13:40:17.590Z,4.80
2019-03-21T13:41:22.562Z,4.17
2019-03-21T13:42:27.321Z,3.98
2019-03-21T13:43:32.209Z,4.58
2019-03-21T13:44:37.136Z,3.62
2019-03-21T13:45:41.975Z,3.95
2019-03-21T13:46:46.709Z,4.12
2019-03-21T13:47:51.798Z,3.92
2019-03-21T13:48:56.549Z,4.25
2019-03-21T13:50:01.279Z,3.42
2019-03-21T13:51:06.048Z,3.58
2019-03-21T13:52:10.885Z,3.87
2019-03-21T13:53:18.944Z,3.33
2019-03-21T13:54:22.313Z,3.15
2019-03-21T13:55:27.104Z,4.42
2019-03-21T13:56:37.986Z,4.45
2019-03-21T13:57:38.631Z,4.60
2019-03-21T13:58:43.491Z,5.12
2019-03-21T13:59:48.557Z,4.40
2019-03-21T14:00:53.417Z,4.05
2019-03-21T14:01:58.413Z,4.60
2019-03-21T14:03:03.149Z,4.62
2019-03-21T14:04:07.957Z,4.80
2019-03-21T14:05:13.063Z,4.47
2019-03-21T14:06:17.903Z,4.50
2019-03-21T14:07:22.671Z,4.10
2019-03-21T14:08:27.539Z,4.42
2019-03-21T14:09:32.416Z,4.50
2019-03-21T14:10:37.285Z,4.00
2019-03-21T14:11:42.082Z,4.20
2019-03-21T14:12:47.227Z,4.42
2019-03-21T14:13:52.078Z,4.10
2019-03-21T14:14:56.788Z,4.50
2019-03-21T14:16:01.554Z,4.20
2019-03-21T14:17:06.484Z,3.30
2019-03-21T14:18:11.648Z,4.05
2019-03-21T14:19:16.489Z,3.90
2019-03-21T14:20:21.256Z,3.35
2019-03-21T14:21:26.151Z,4.90
2019-03-21T14:22:31.024Z,4.05
2019-03-21T14:23:43.189Z,4.00
2019-03-21T14:24:42.372Z,3.77
2019-03-21T14:25:47.264Z,4.37
2019-03-21T14:26:52.098Z,4.17
2019-03-21T14:27:56.907Z,3.85
2019-03-21T14:29:12.220Z,3.42
2019-03-21T14:30:08.678Z,3.98
2019-03-21T14:31:13.548Z,3.60